Smoot, WY

4:51 AM MDT on September 18, 2014 (GMT -0600)
KWYAFTON2 | Change Station
CLOSE
Current Station
Personal Weather Station
Location: Afton, WY
Elevation: 6312 ft
Nearby Weather Stations
Active Advisory: Special Statement Active Notice: Record Report

Elev 6312 ft 42.67 °N, 110.94 °W | Updated 1 minute ago

Partly Cloudy
Partly Cloudy
49.9 °F
Feels Like 50 °F
N
2.0
Wind Variable Wind from ENE

Today
High -- | Low -- °F
--% Chance of Precip.
Yesterday
High -- | Low -- °F
Precip. -- in
7:06 AM 7:27 PM
Waning Crescent, 28% visible
Pressure 30.03 in
Visibility 10.0 miles
Clouds Clear
Windchill 50 °F
Dew Point 32 °F
Humidity 50%
Rainfall 0.00 in
Snow Depth 0 in , 0 in , 0 in
UV 0 out of 12
Pollen 6.90 out of 12
Air Quality Not available.
Flu Activity Not available.
METAR KAFO 181035Z AUTO 19004KT 10SM CLR 10/04 A3003 RMK AO2

More Conditions Fewer Conditions

Pressure 30.03 in
Visibility 10.0 miles
Clouds Clear
Windchill 50 °F
Dew Point 32 °F
Humidity 50%
Rainfall 0.00 in
Snow Depth 0 in , 0 in , 0 in
UV 0 out of 12
Pollen 6.90 out of 12
Air Quality Not available.
Flu Activity Not available.
METAR KAFO 181035Z AUTO 19004KT 10SM CLR 10/04 A3003 RMK AO2

More Conditions Fewer Conditions

10-Day Weather Forecast

Almanac

Astronomy

Sep. 18, 2014 Rise Set
Actual Time 7:06 AM MDT 7:27 PM MDT
Civil Twilight 6:38 AM MDT 7:56 PM MDT
Nautical Twilight 6:05 AM MDT 8:29 PM MDT
Astronomical Twilight 5:31 AM MDT 9:03 PM MDT
Moon 1:56 AM MDT 4:26 PM MDT
Length of Visible Light 13h 17m
Length of Day
12h 21m
Tomorrow will be 2m 51s shorter.
Waning Crescent, 28% of the Moon is Illuminated
Today
Waning Crescent
Sep 24
New
Oct 1
First Quarter
Oct 8
Full
Oct 15
Last Quarter

Today's Extremes

State Highs State Lows

Community

WunderPhotos

Upload Photos

1,754,314 photos uploaded!

Nearby

Snow Depth

Station Depth Elevation
Blackwater 0 in 9780 ft
Big Goose 0 in 7990 ft
South Brush Creek 0 in 8440 ft
Phillips Bench 0 in 8200 ft
Brooklyn Lake 0 in 10220 ft

Earthquake Activity

City Distance Mag. Time & Date
No recent earthquake activity has been reported nearby.
Minimum magnitude displayed is 2.5.

Coastal Water Temperatures

Place Temperature
No Stations Reporting

Nearby Weather Stations